Terminal Aerodrome Forecast
Issued by NWS

Home | Current Version | Previous Version | Text Only | Print | Product List | Glossary On
Versions: 1 2 3 4 5 6 7 8 9 10 11 12 13 14 15 16 17 18 19 20
000
FTUS43 KGRR 201700
TAFBTL
TAF
KBTL 201740Z 2018/2118 25008KT P6SM BKN040
     FM202100 VRB03KT P6SM FEW040
     FM210800 VRB03KT 3SM BR SCT120
     FM211400 VRB03KT 6SM HZ SCT035 SCT120
     FM211700 22008KT P6SM VCSH SCT040 BKN120=

USA.gov is the U.S. government's official web portal to all federal, state and local government web resources and services.